MWCB

Details ICAO MWCB (CYB)
Name Cayman Brac Gerrard Smith Intl
Region Cayman Islands
Timezone Unknown (UTC+0.0)
Plans Departing 10
Arriving 22
Stats Elevation 7 ft / 2 m (AMSL)
Location 19.686981° -79.882789°
Runways 1
Magnetic Variation 5.952° W
Sunrise 2017-12-18 11:49:20 UTC / 2017-12-18 11:49:20 Local
Sunset 2017-12-18 22:45:52 UTC / 2017-12-18 22:45:52 Local
Advertisement - Login to hide

Runways

ID Width Length Bearing (true) Bearing (mag) Surface Threshold Offset Overrun Length
09 148 ft / 45 m 5,965 ft / 1,818 m 84.73° 90.68° Asphalt 0 ft / 0 m 36 ft / 11 m
27 148 ft / 45 m 5,965 ft / 1,818 m 264.74° 270.69° Asphalt 0 ft / 0 m 26 ft / 8 m

Map

Weather


0- 5 10 15 20 25 30 35+ Temperature / ° C

Clouds and Precipitation
Forecast for 2017-12-19 00:00 UTC. Updated an hour ago

Ground ~20,000 ft ~40,000 ft Winds

METAR

MWCB 182200Z 09009KT 9999 FEW018 28/23 Q1017

TAF

Not found

Frequencies

Tower 118.40 MHz TWR
Approach 120.20 MHz CAYMAN APP
Warning: Do not use this data for real-world aviation or navigation. No guarantee of current accuracy is given.